Terminal Aerodrome Forecast
Issued by NWS

Home | Current Version | Previous Version | Text Only | Print | Product List | Glossary On
Versions: 1 2 3 4 5 6 7 8 9 10 11 12 13 14 15 16 17 18 19
000
FTUS44 KTSA 021100
TAFXNA
TAF
KXNA 021125Z 0212/0312 33013G20KT P6SM SCT007 OVC015
      TEMPO 0212/0214 1SM TSRA BKN010CB
     FM021400 04008KT P6SM SCT010 OVC020
      TEMPO 0214/0216 1SM TSRA BKN012CB
     FM021700 21008KT P6SM BKN035 BKN100
     FM030200 16003KT P6SM BKN150=

USA.gov is the U.S. government's official web portal to all federal, state and local government web resources and services.